sensor_id;sensor_type;location;lat;lon;timestamp;temperature;humidity
25450;DHT22;13371;52.080;5.624;2023-06-19T00:02:16;24.70;66.10
25450;DHT22;13371;52.080;5.624;2023-06-19T00:04:41;24.80;66.00
25450;DHT22;13371;52.080;5.624;2023-06-19T00:07:07;24.80;66.20
25450;DHT22;13371;52.080;5.624;2023-06-19T00:09:33;25.00;66.00
25450;DHT22;13371;52.080;5.624;2023-06-19T00:11:58;25.10;66.10
25450;DHT22;13371;52.080;5.624;2023-06-19T00:14:25;25.20;65.90
25450;DHT22;13371;52.080;5.624;2023-06-19T00:16:51;25.30;66.50
25450;DHT22;13371;52.080;5.624;2023-06-19T00:19:19;25.30;65.90
25450;DHT22;13371;52.080;5.624;2023-06-19T00:21:45;25.40;65.80
25450;DHT22;13371;52.080;5.624;2023-06-19T00:24:11;25.50;65.60
25450;DHT22;13371;52.080;5.624;2023-06-19T00:26:36;25.50;66.20
25450;DHT22;13371;52.080;5.624;2023-06-19T00:29:02;25.40;66.30
25450;DHT22;13371;52.080;5.624;2023-06-19T00:31:30;25.40;66.70
25450;DHT22;13371;52.080;5.624;2023-06-19T00:33:56;25.30;67.40
25450;DHT22;13371;52.080;5.624;2023-06-19T00:36:22;25.30;67.70
25450;DHT22;13371;52.080;5.624;2023-06-19T00:38:51;25.40;67.60
25450;DHT22;13371;52.080;5.624;2023-06-19T00:41:17;25.50;67.50
25450;DHT22;13371;52.080;5.624;2023-06-19T00:43:43;25.40;68.00
25450;DHT22;13371;52.080;5.624;2023-06-19T00:46:09;25.50;67.70
25450;DHT22;13371;52.080;5.624;2023-06-19T00:48:35;25.20;68.60
25450;DHT22;13371;52.080;5.624;2023-06-19T00:51:01;24.90;69.60
25450;DHT22;13371;52.080;5.624;2023-06-19T00:53:26;25.10;69.80
25450;DHT22;13371;52.080;5.624;2023-06-19T00:55:53;25.00;69.90
25450;DHT22;13371;52.080;5.624;2023-06-19T00:58:20;24.80;70.90
25450;DHT22;13371;52.080;5.624;2023-06-19T01:00:46;24.90;70.60
25450;DHT22;13371;52.080;5.624;2023-06-19T01:03:12;24.90;70.40
25450;DHT22;13371;52.080;5.624;2023-06-19T01:05:38;24.70;71.40
25450;DHT22;13371;52.080;5.624;2023-06-19T01:10:59;24.50;72.10
25450;DHT22;13371;52.080;5.624;2023-06-19T01:16:06;24.80;72.10
25450;DHT22;13371;52.080;5.624;2023-06-19T01:18:32;24.70;72.20
25450;DHT22;13371;52.080;5.624;2023-06-19T01:21:17;24.50;73.00
25450;DHT22;13371;52.080;5.624;2023-06-19T01:23:44;24.50;73.30
25450;DHT22;13371;52.080;5.624;2023-06-19T01:26:11;24.30;73.70
25450;DHT22;13371;52.080;5.624;2023-06-19T01:28:39;24.00;74.60
25450;DHT22;13371;52.080;5.624;2023-06-19T01:31:13;24.00;75.10
25450;DHT22;13371;52.080;5.624;2023-06-19T01:33:40;24.10;75.00
25450;DHT22;13371;52.080;5.624;2023-06-19T01:36:08;24.10;74.90
25450;DHT22;13371;52.080;5.624;2023-06-19T01:38:34;24.00;74.60
25450;DHT22;13371;52.080;5.624;2023-06-19T01:41:02;23.70;76.10
25450;DHT22;13371;52.080;5.624;2023-06-19T01:43:30;23.50;76.80
25450;DHT22;13371;52.080;5.624;2023-06-19T01:45:57;23.40;77.50
25450;DHT22;13371;52.080;5.624;2023-06-19T01:48:23;23.30;77.80
25450;DHT22;13371;52.080;5.624;2023-06-19T01:50:50;23.50;77.30
25450;DHT22;13371;52.080;5.624;2023-06-19T01:53:16;23.50;77.40
25450;DHT22;13371;52.080;5.624;2023-06-19T01:55:42;23.50;77.80
25450;DHT22;13371;52.080;5.624;2023-06-19T01:58:08;23.30;79.20
25450;DHT22;13371;52.080;5.624;2023-06-19T02:00:33;23.10;79.10
25450;DHT22;13371;52.080;5.624;2023-06-19T02:03:03;23.40;78.60
25450;DHT22;13371;52.080;5.624;2023-06-19T02:05:30;23.50;78.30
25450;DHT22;13371;52.080;5.624;2023-06-19T02:07:56;23.60;78.10
25450;DHT22;13371;52.080;5.624;2023-06-19T02:10:21;23.70;78.00
25450;DHT22;13371;52.080;5.624;2023-06-19T02:12:47;23.60;77.90
25450;DHT22;13371;52.080;5.624;2023-06-19T02:15:12;23.60;78.30
25450;DHT22;13371;52.080;5.624;2023-06-19T02:17:38;23.70;78.40
25450;DHT22;13371;52.080;5.624;2023-06-19T02:20:04;23.50;78.70
25450;DHT22;13371;52.080;5.624;2023-06-19T02:22:34;23.30;80.50
25450;DHT22;13371;52.080;5.624;2023-06-19T02:24:59;23.00;81.50
25450;DHT22;13371;52.080;5.624;2023-06-19T02:27:25;22.90;82.10
25450;DHT22;13371;52.080;5.624;2023-06-19T02:29:51;23.00;82.00
25450;DHT22;13371;52.080;5.624;2023-06-19T02:32:16;23.30;81.10
25450;DHT22;13371;52.080;5.624;2023-06-19T02:34:42;23.20;81.60
25450;DHT22;13371;52.080;5.624;2023-06-19T02:37:07;22.80;82.70
25450;DHT22;13371;52.080;5.624;2023-06-19T02:39:33;22.90;83.10
25450;DHT22;13371;52.080;5.624;2023-06-19T02:41:59;22.80;83.70
25450;DHT22;13371;52.080;5.624;2023-06-19T02:44:25;22.90;83.80
25450;DHT22;13371;52.080;5.624;2023-06-19T02:46:50;23.00;83.60
25450;DHT22;13371;52.080;5.624;2023-06-19T02:49:16;23.00;83.40
25450;DHT22;13371;52.080;5.624;2023-06-19T02:51:41;22.90;84.10
25450;DHT22;13371;52.080;5.624;2023-06-19T02:54:07;22.90;84.30
25450;DHT22;13371;52.080;5.624;2023-06-19T02:56:33;23.00;84.20
25450;DHT22;13371;52.080;5.624;2023-06-19T02:58:58;23.10;83.70
25450;DHT22;13371;52.080;5.624;2023-06-19T03:01:24;22.80;85.30
25450;DHT22;13371;52.080;5.624;2023-06-19T03:03:49;22.90;85.10
25450;DHT22;13371;52.080;5.624;2023-06-19T03:06:17;22.80;85.40
25450;DHT22;13371;52.080;5.624;2023-06-19T03:08:43;22.80;86.00
25450;DHT22;13371;52.080;5.624;2023-06-19T03:11:09;22.80;86.00
25450;DHT22;13371;52.080;5.624;2023-06-19T03:13:50;22.70;86.20
25450;DHT22;13371;52.080;5.624;2023-06-19T03:16:16;22.70;86.40
25450;DHT22;13371;52.080;5.624;2023-06-19T03:18:42;22.60;87.50
25450;DHT22;13371;52.080;5.624;2023-06-19T03:21:10;22.80;86.40
25450;DHT22;13371;52.080;5.624;2023-06-19T03:23:36;22.80;86.40
25450;DHT22;13371;52.080;5.624;2023-06-19T03:26:02;23.10;85.60
25450;DHT22;13371;52.080;5.624;2023-06-19T03:28:28;23.20;85.20
25450;DHT22;13371;52.080;5.624;2023-06-19T03:30:54;22.80;86.30
25450;DHT22;13371;52.080;5.624;2023-06-19T03:33:19;22.80;86.70
25450;DHT22;13371;52.080;5.624;2023-06-19T03:35:45;22.90;86.40
25450;DHT22;13371;52.080;5.624;2023-06-19T03:38:10;22.90;86.50
25450;DHT22;13371;52.080;5.624;2023-06-19T03:40:36;22.90;86.80
25450;DHT22;13371;52.080;5.624;2023-06-19T03:43:01;22.80;87.20
25450;DHT22;13371;52.080;5.624;2023-06-19T03:45:27;22.90;86.80
25450;DHT22;13371;52.080;5.624;2023-06-19T03:47:53;23.00;86.30
25450;DHT22;13371;52.080;5.624;2023-06-19T03:50:19;23.10;86.00
25450;DHT22;13371;52.080;5.624;2023-06-19T03:52:45;23.00;86.50
25450;DHT22;13371;52.080;5.624;2023-06-19T03:55:10;23.00;86.50
25450;DHT22;13371;52.080;5.624;2023-06-19T03:57:36;22.70;88.00
25450;DHT22;13371;52.080;5.624;2023-06-19T04:00:02;22.70;88.10
25450;DHT22;13371;52.080;5.624;2023-06-19T04:02:29;22.90;87.60
25450;DHT22;13371;52.080;5.624;2023-06-19T04:04:54;22.90;87.80
25450;DHT22;13371;52.080;5.624;2023-06-19T04:07:20;22.80;88.00
25450;DHT22;13371;52.080;5.624;2023-06-19T04:09:45;22.80;88.70
25450;DHT22;13371;52.080;5.624;2023-06-19T04:12:11;22.70;89.30
25450;DHT22;13371;52.080;5.624;2023-06-19T04:14:37;22.90;88.30
25450;DHT22;13371;52.080;5.624;2023-06-19T04:17:02;23.00;88.30
25450;DHT22;13371;52.080;5.624;2023-06-19T04:19:28;22.90;88.40
25450;DHT22;13371;52.080;5.624;2023-06-19T04:21:53;22.90;88.90
25450;DHT22;13371;52.080;5.624;2023-06-19T04:24:20;22.80;89.10
25450;DHT22;13371;52.080;5.624;2023-06-19T04:26:45;23.00;89.00
25450;DHT22;13371;52.080;5.624;2023-06-19T04:29:11;22.80;89.20
25450;DHT22;13371;52.080;5.624;2023-06-19T04:31:44;22.80;89.00
25450;DHT22;13371;52.080;5.624;2023-06-19T04:34:14;23.00;89.00
25450;DHT22;13371;52.080;5.624;2023-06-19T04:36:40;23.00;89.40
25450;DHT22;13371;52.080;5.624;2023-06-19T04:39:06;22.70;90.00
25450;DHT22;13371;52.080;5.624;2023-06-19T04:41:31;22.90;90.00
25450;DHT22;13371;52.080;5.624;2023-06-19T04:43:57;22.90;90.00
25450;DHT22;13371;52.080;5.624;2023-06-19T04:46:23;22.80;90.30
25450;DHT22;13371;52.080;5.624;2023-06-19T04:48:48;22.80;90.20
25450;DHT22;13371;52.080;5.624;2023-06-19T04:51:17;22.80;90.30
25450;DHT22;13371;52.080;5.624;2023-06-19T04:53:47;22.90;90.60
25450;DHT22;13371;52.080;5.624;2023-06-19T04:56:13;23.00;90.60
25450;DHT22;13371;52.080;5.624;2023-06-19T04:58:39;23.20;90.50
25450;DHT22;13371;52.080;5.624;2023-06-19T05:01:11;23.10;90.50
25450;DHT22;13371;52.080;5.624;2023-06-19T05:03:37;23.10;90.80
25450;DHT22;13371;52.080;5.624;2023-06-19T05:06:03;23.00;91.10
25450;DHT22;13371;52.080;5.624;2023-06-19T05:08:29;23.10;91.10
25450;DHT22;13371;52.080;5.624;2023-06-19T05:10:54;22.90;91.20
25450;DHT22;13371;52.080;5.624;2023-06-19T05:13:20;22.70;91.90
25450;DHT22;13371;52.080;5.624;2023-06-19T05:15:45;22.50;91.90
25450;DHT22;13371;52.080;5.624;2023-06-19T05:18:11;22.50;92.30
25450;DHT22;13371;52.080;5.624;2023-06-19T05:20:37;22.40;92.60
25450;DHT22;13371;52.080;5.624;2023-06-19T05:23:02;22.60;92.40
25450;DHT22;13371;52.080;5.624;2023-06-19T05:25:28;22.70;92.10
25450;DHT22;13371;52.080;5.624;2023-06-19T05:27:53;23.00;92.00
25450;DHT22;13371;52.080;5.624;2023-06-19T05:30:19;23.00;91.80
25450;DHT22;13371;52.080;5.624;2023-06-19T05:32:44;23.10;91.60
25450;DHT22;13371;52.080;5.624;2023-06-19T05:35:10;23.10;91.60
25450;DHT22;13371;52.080;5.624;2023-06-19T05:37:36;23.20;91.30
25450;DHT22;13371;52.080;5.624;2023-06-19T05:40:03;22.90;91.80
25450;DHT22;13371;52.080;5.624;2023-06-19T05:42:29;23.10;91.50
25450;DHT22;13371;52.080;5.624;2023-06-19T05:44:54;23.00;91.70
25450;DHT22;13371;52.080;5.624;2023-06-19T05:47:20;23.00;91.80
25450;DHT22;13371;52.080;5.624;2023-06-19T05:49:46;23.00;92.10
25450;DHT22;13371;52.080;5.624;2023-06-19T05:52:12;22.90;91.80
25450;DHT22;13371;52.080;5.624;2023-06-19T05:54:37;22.80;92.00
25450;DHT22;13371;52.080;5.624;2023-06-19T05:57:03;22.70;92.10
25450;DHT22;13371;52.080;5.624;2023-06-19T05:59:29;22.80;92.20
25450;DHT22;13371;52.080;5.624;2023-06-19T06:01:54;22.70;92.40
25450;DHT22;13371;52.080;5.624;2023-06-19T06:04:21;22.80;92.30
25450;DHT22;13371;52.080;5.624;2023-06-19T06:06:47;22.80;92.30
25450;DHT22;13371;52.080;5.624;2023-06-19T06:09:13;22.90;92.00
25450;DHT22;13371;52.080;5.624;2023-06-19T06:11:40;22.90;92.00
25450;DHT22;13371;52.080;5.624;2023-06-19T06:14:05;23.00;91.80
25450;DHT22;13371;52.080;5.624;2023-06-19T06:16:31;23.10;91.90
25450;DHT22;13371;52.080;5.624;2023-06-19T06:18:56;23.10;91.40
25450;DHT22;13371;52.080;5.624;2023-06-19T06:21:22;23.10;91.40
25450;DHT22;13371;52.080;5.624;2023-06-19T06:23:47;23.00;91.60
25450;DHT22;13371;52.080;5.624;2023-06-19T06:26:13;23.20;91.30
25450;DHT22;13371;52.080;5.624;2023-06-19T06:28:40;23.20;91.00
25450;DHT22;13371;52.080;5.624;2023-06-19T06:31:05;23.20;90.90
25450;DHT22;13371;52.080;5.624;2023-06-19T06:33:33;23.00;90.90
25450;DHT22;13371;52.080;5.624;2023-06-19T06:35:59;22.90;90.80
25450;DHT22;13371;52.080;5.624;2023-06-19T06:38:25;22.90;90.90
25450;DHT22;13371;52.080;5.624;2023-06-19T06:40:50;22.80;90.80
25450;DHT22;13371;52.080;5.624;2023-06-19T06:43:17;22.80;90.90
25450;DHT22;13371;52.080;5.624;2023-06-19T06:45:42;22.90;90.90
25450;DHT22;13371;52.080;5.624;2023-06-19T06:48:08;23.00;90.30
25450;DHT22;13371;52.080;5.624;2023-06-19T06:50:34;23.00;90.50
25450;DHT22;13371;52.080;5.624;2023-06-19T06:53:00;22.90;90.80
25450;DHT22;13371;52.080;5.624;2023-06-19T06:55:26;22.70;91.00
25450;DHT22;13371;52.080;5.624;2023-06-19T06:57:51;22.70;90.90
25450;DHT22;13371;52.080;5.624;2023-06-19T07:00:17;22.60;90.90
25450;DHT22;13371;52.080;5.624;2023-06-19T07:02:44;22.70;90.60
25450;DHT22;13371;52.080;5.624;2023-06-19T07:05:11;22.80;90.60
25450;DHT22;13371;52.080;5.624;2023-06-19T07:07:37;22.80;90.10
25450;DHT22;13371;52.080;5.624;2023-06-19T07:10:03;22.70;90.10
25450;DHT22;13371;52.080;5.624;2023-06-19T07:12:29;22.50;90.50
25450;DHT22;13371;52.080;5.624;2023-06-19T07:14:54;22.70;90.10
25450;DHT22;13371;52.080;5.624;2023-06-19T07:17:20;22.90;90.00
25450;DHT22;13371;52.080;5.624;2023-06-19T07:19:46;23.10;89.00
25450;DHT22;13371;52.080;5.624;2023-06-19T07:22:11;23.40;88.50
25450;DHT22;13371;52.080;5.624;2023-06-19T07:24:37;23.60;86.90
25450;DHT22;13371;52.080;5.624;2023-06-19T07:27:03;23.60;87.40
25450;DHT22;13371;52.080;5.624;2023-06-19T07:29:29;23.60;87.10
25450;DHT22;13371;52.080;5.624;2023-06-19T07:31:54;23.40;87.30
25450;DHT22;13371;52.080;5.624;2023-06-19T07:34:20;23.50;86.20
25450;DHT22;13371;52.080;5.624;2023-06-19T07:36:48;23.10;86.80
25450;DHT22;13371;52.080;5.624;2023-06-19T07:39:13;22.80;88.10
25450;DHT22;13371;52.080;5.624;2023-06-19T07:41:39;23.00;87.70
25450;DHT22;13371;52.080;5.624;2023-06-19T07:44:04;23.10;87.40
25450;DHT22;13371;52.080;5.624;2023-06-19T07:46:30;23.30;87.30
25450;DHT22;13371;52.080;5.624;2023-06-19T07:48:55;23.40;86.50
25450;DHT22;13371;52.080;5.624;2023-06-19T07:51:21;23.30;86.70
25450;DHT22;13371;52.080;5.624;2023-06-19T07:53:46;23.40;85.60
25450;DHT22;13371;52.080;5.624;2023-06-19T07:56:12;23.30;85.60
25450;DHT22;13371;52.080;5.624;2023-06-19T07:58:38;23.40;85.80
25450;DHT22;13371;52.080;5.624;2023-06-19T08:01:03;23.70;85.20
25450;DHT22;13371;52.080;5.624;2023-06-19T08:03:29;23.70;84.00
25450;DHT22;13371;52.080;5.624;2023-06-19T08:05:56;23.80;84.70
25450;DHT22;13371;52.080;5.624;2023-06-19T08:08:21;23.90;84.50
25450;DHT22;13371;52.080;5.624;2023-06-19T08:10:47;23.80;83.60
25450;DHT22;13371;52.080;5.624;2023-06-19T08:13:13;23.80;83.70
25450;DHT22;13371;52.080;5.624;2023-06-19T08:15:38;23.60;85.20
25450;DHT22;13371;52.080;5.624;2023-06-19T08:18:04;23.60;84.00
25450;DHT22;13371;52.080;5.624;2023-06-19T08:20:30;23.50;83.90
25450;DHT22;13371;52.080;5.624;2023-06-19T08:22:55;23.60;83.40
25450;DHT22;13371;52.080;5.624;2023-06-19T08:25:22;23.70;83.00
25450;DHT22;13371;52.080;5.624;2023-06-19T08:27:48;23.50;83.50
25450;DHT22;13371;52.080;5.624;2023-06-19T08:30:13;23.90;83.30
25450;DHT22;13371;52.080;5.624;2023-06-19T08:32:39;23.60;82.50
25450;DHT22;13371;52.080;5.624;2023-06-19T08:35:05;23.40;82.70
25450;DHT22;13371;52.080;5.624;2023-06-19T08:37:31;23.40;83.10
25450;DHT22;13371;52.080;5.624;2023-06-19T08:39:57;23.40;85.00
25450;DHT22;13371;52.080;5.624;2023-06-19T08:42:23;23.60;82.80
25450;DHT22;13371;52.080;5.624;2023-06-19T08:44:49;23.80;82.70
25450;DHT22;13371;52.080;5.624;2023-06-19T08:47:14;23.90;82.30
25450;DHT22;13371;52.080;5.624;2023-06-19T08:49:40;24.00;82.80
25450;DHT22;13371;52.080;5.624;2023-06-19T08:52:06;24.20;81.60
25450;DHT22;13371;52.080;5.624;2023-06-19T08:54:32;24.10;81.20
25450;DHT22;13371;52.080;5.624;2023-06-19T08:57:02;23.70;81.20
25450;DHT22;13371;52.080;5.624;2023-06-19T08:59:29;23.80;82.80
25450;DHT22;13371;52.080;5.624;2023-06-19T09:01:56;24.00;81.90
25450;DHT22;13371;52.080;5.624;2023-06-19T09:04:25;23.70;82.50
25450;DHT22;13371;52.080;5.624;2023-06-19T09:06:57;23.80;82.30
25450;DHT22;13371;52.080;5.624;2023-06-19T09:09:24;24.00;82.10
25450;DHT22;13371;52.080;5.624;2023-06-19T09:12:16;24.20;82.40
25450;DHT22;13371;52.080;5.624;2023-06-19T09:14:44;24.40;81.30
25450;DHT22;13371;52.080;5.624;2023-06-19T09:17:19;24.40;80.20
25450;DHT22;13371;52.080;5.624;2023-06-19T09:19:52;24.30;80.00
25450;DHT22;13371;52.080;5.624;2023-06-19T09:22:20;24.40;80.50
25450;DHT22;13371;52.080;5.624;2023-06-19T09:24:47;24.30;80.30
25450;DHT22;13371;52.080;5.624;2023-06-19T09:27:14;24.40;79.30
25450;DHT22;13371;52.080;5.624;2023-06-19T09:29:43;24.50;79.40
25450;DHT22;13371;52.080;5.624;2023-06-19T09:32:23;24.60;79.90
25450;DHT22;13371;52.080;5.624;2023-06-19T09:34:51;24.60;78.60
25450;DHT22;13371;52.080;5.624;2023-06-19T09:37:25;24.90;80.00
25450;DHT22;13371;52.080;5.624;2023-06-19T09:42:34;25.10;77.90
25450;DHT22;13371;52.080;5.624;2023-06-19T09:47:47;25.00;80.00
25450;DHT22;13371;52.080;5.624;2023-06-19T09:50:14;25.10;78.40
25450;DHT22;13371;52.080;5.624;2023-06-19T09:52:40;25.00;77.90
25450;DHT22;13371;52.080;5.624;2023-06-19T09:55:08;25.10;78.80
25450;DHT22;13371;52.080;5.624;2023-06-19T09:57:35;25.00;79.30
25450;DHT22;13371;52.080;5.624;2023-06-19T10:00:04;25.00;77.30
25450;DHT22;13371;52.080;5.624;2023-06-19T10:02:44;25.20;77.40
25450;DHT22;13371;52.080;5.624;2023-06-19T10:05:10;25.30;77.80
25450;DHT22;13371;52.080;5.624;2023-06-19T10:07:40;25.60;77.00
25450;DHT22;13371;52.080;5.624;2023-06-19T10:10:09;25.70;76.80
25450;DHT22;13371;52.080;5.624;2023-06-19T10:15:25;25.70;76.50
25450;DHT22;13371;52.080;5.624;2023-06-19T10:18:00;25.90;75.20
25450;DHT22;13371;52.080;5.624;2023-06-19T10:20:28;26.00;75.20
25450;DHT22;13371;52.080;5.624;2023-06-19T10:22:58;26.20;75.40
25450;DHT22;13371;52.080;5.624;2023-06-19T10:25:27;26.40;75.10
25450;DHT22;13371;52.080;5.624;2023-06-19T10:27:53;26.70;75.50
25450;DHT22;13371;52.080;5.624;2023-06-19T10:30:20;26.90;74.60
25450;DHT22;13371;52.080;5.624;2023-06-19T10:32:46;27.00;72.80
25450;DHT22;13371;52.080;5.624;2023-06-19T10:35:13;27.00;72.70
25450;DHT22;13371;52.080;5.624;2023-06-19T10:37:39;27.20;71.80
25450;DHT22;13371;52.080;5.624;2023-06-19T10:40:08;27.10;72.80
25450;DHT22;13371;52.080;5.624;2023-06-19T10:42:41;27.30;71.10
25450;DHT22;13371;52.080;5.624;2023-06-19T10:45:09;27.50;71.20
25450;DHT22;13371;52.080;5.624;2023-06-19T10:47:35;27.60;70.50
25450;DHT22;13371;52.080;5.624;2023-06-19T10:50:01;27.60;68.20
25450;DHT22;13371;52.080;5.624;2023-06-19T10:52:30;27.60;69.00
25450;DHT22;13371;52.080;5.624;2023-06-19T10:54:56;27.60;70.60
25450;DHT22;13371;52.080;5.624;2023-06-19T10:57:31;27.60;69.60
25450;DHT22;13371;52.080;5.624;2023-06-19T10:59:58;27.60;70.00
25450;DHT22;13371;52.080;5.624;2023-06-19T11:02:24;27.50;70.60
25450;DHT22;13371;52.080;5.624;2023-06-19T11:04:54;27.40;68.00
25450;DHT22;13371;52.080;5.624;2023-06-19T11:07:21;27.10;69.80
25450;DHT22;13371;52.080;5.624;2023-06-19T11:09:48;26.70;70.70
25450;DHT22;13371;52.080;5.624;2023-06-19T11:12:19;26.90;71.30
25450;DHT22;13371;52.080;5.624;2023-06-19T11:14:45;26.80;70.90
25450;DHT22;13371;52.080;5.624;2023-06-19T11:17:10;27.20;70.50
25450;DHT22;13371;52.080;5.624;2023-06-19T11:19:36;27.40;69.80
25450;DHT22;13371;52.080;5.624;2023-06-19T11:22:04;27.50;70.90
25450;DHT22;13371;52.080;5.624;2023-06-19T11:24:30;27.70;68.60
25450;DHT22;13371;52.080;5.624;2023-06-19T11:26:57;27.90;69.60
25450;DHT22;13371;52.080;5.624;2023-06-19T11:29:30;28.10;68.30
25450;DHT22;13371;52.080;5.624;2023-06-19T11:32:13;27.90;69.00
25450;DHT22;13371;52.080;5.624;2023-06-19T11:34:40;27.90;69.20
25450;DHT22;13371;52.080;5.624;2023-06-19T11:37:16;27.90;67.10
25450;DHT22;13371;52.080;5.624;2023-06-19T11:39:44;27.90;67.70
25450;DHT22;13371;52.080;5.624;2023-06-19T11:42:12;27.90;68.20
25450;DHT22;13371;52.080;5.624;2023-06-19T11:45:01;27.80;68.50
25450;DHT22;13371;52.080;5.624;2023-06-19T11:47:32;27.90;68.90
25450;DHT22;13371;52.080;5.624;2023-06-19T11:49:58;27.80;68.90
25450;DHT22;13371;52.080;5.624;2023-06-19T11:52:25;27.70;69.40
25450;DHT22;13371;52.080;5.624;2023-06-19T11:54:51;27.80;68.30
25450;DHT22;13371;52.080;5.624;2023-06-19T11:57:17;27.70;68.00
25450;DHT22;13371;52.080;5.624;2023-06-19T11:59:42;27.90;69.10
25450;DHT22;13371;52.080;5.624;2023-06-19T12:02:08;28.00;67.90
25450;DHT22;13371;52.080;5.624;2023-06-19T12:04:34;28.30;66.90
25450;DHT22;13371;52.080;5.624;2023-06-19T12:07:00;28.40;67.30
25450;DHT22;13371;52.080;5.624;2023-06-19T12:09:26;28.40;67.60
25450;DHT22;13371;52.080;5.624;2023-06-19T12:11:53;28.50;66.80
25450;DHT22;13371;52.080;5.624;2023-06-19T12:14:18;28.40;66.10
25450;DHT22;13371;52.080;5.624;2023-06-19T12:16:48;28.40;66.10
25450;DHT22;13371;52.080;5.624;2023-06-19T12:19:14;28.40;66.70
25450;DHT22;13371;52.080;5.624;2023-06-19T12:21:39;28.80;66.20
25450;DHT22;13371;52.080;5.624;2023-06-19T12:24:05;28.90;65.70
25450;DHT22;13371;52.080;5.624;2023-06-19T12:26:33;28.80;64.60
25450;DHT22;13371;52.080;5.624;2023-06-19T12:29:05;28.80;65.00
25450;DHT22;13371;52.080;5.624;2023-06-19T12:31:32;28.90;66.00
25450;DHT22;13371;52.080;5.624;2023-06-19T12:33:58;29.20;65.70
25450;DHT22;13371;52.080;5.624;2023-06-19T12:36:25;29.20;63.70
25450;DHT22;13371;52.080;5.624;2023-06-19T12:38:52;29.30;61.50
25450;DHT22;13371;52.080;5.624;2023-06-19T12:41:19;29.40;61.80
25450;DHT22;13371;52.080;5.624;2023-06-19T12:43:45;29.50;61.30
25450;DHT22;13371;52.080;5.624;2023-06-19T12:46:11;29.60;60.60
25450;DHT22;13371;52.080;5.624;2023-06-19T12:48:37;29.90;60.60
25450;DHT22;13371;52.080;5.624;2023-06-19T12:51:03;30.00;59.60
25450;DHT22;13371;52.080;5.624;2023-06-19T12:53:28;29.60;59.50
25450;DHT22;13371;52.080;5.624;2023-06-19T12:55:58;29.70;61.40
25450;DHT22;13371;52.080;5.624;2023-06-19T12:58:25;29.50;59.90
25450;DHT22;13371;52.080;5.624;2023-06-19T13:00:51;29.80;61.80
25450;DHT22;13371;52.080;5.624;2023-06-19T13:03:16;29.90;60.50
25450;DHT22;13371;52.080;5.624;2023-06-19T13:05:42;30.00;59.70
25450;DHT22;13371;52.080;5.624;2023-06-19T13:08:08;29.80;59.00
25450;DHT22;13371;52.080;5.624;2023-06-19T13:10:33;29.80;58.70
25450;DHT22;13371;52.080;5.624;2023-06-19T13:12:59;29.80;59.60
25450;DHT22;13371;52.080;5.624;2023-06-19T13:15:25;30.00;61.20
25450;DHT22;13371;52.080;5.624;2023-06-19T13:17:50;30.00;58.90
25450;DHT22;13371;52.080;5.624;2023-06-19T13:20:17;29.80;57.60
25450;DHT22;13371;52.080;5.624;2023-06-19T13:22:42;29.70;58.70
25450;DHT22;13371;52.080;5.624;2023-06-19T13:25:08;29.70;58.30
25450;DHT22;13371;52.080;5.624;2023-06-19T13:27:34;29.90;59.60
25450;DHT22;13371;52.080;5.624;2023-06-19T13:30:01;29.90;58.20
25450;DHT22;13371;52.080;5.624;2023-06-19T13:32:27;29.90;56.40
25450;DHT22;13371;52.080;5.624;2023-06-19T13:34:52;29.60;55.70
25450;DHT22;13371;52.080;5.624;2023-06-19T13:37:18;29.30;57.60
25450;DHT22;13371;52.080;5.624;2023-06-19T13:39:44;29.50;58.80
25450;DHT22;13371;52.080;5.624;2023-06-19T13:42:10;29.80;59.00
25450;DHT22;13371;52.080;5.624;2023-06-19T13:44:37;30.00;60.30
25450;DHT22;13371;52.080;5.624;2023-06-19T13:47:02;30.00;58.50
25450;DHT22;13371;52.080;5.624;2023-06-19T13:49:28;29.80;58.00
25450;DHT22;13371;52.080;5.624;2023-06-19T13:51:54;29.70;58.70
25450;DHT22;13371;52.080;5.624;2023-06-19T13:54:20;29.70;58.30
25450;DHT22;13371;52.080;5.624;2023-06-19T13:56:46;29.90;58.80
25450;DHT22;13371;52.080;5.624;2023-06-19T13:59:13;29.80;58.60
25450;DHT22;13371;52.080;5.624;2023-06-19T14:01:38;29.70;60.50
25450;DHT22;13371;52.080;5.624;2023-06-19T14:04:04;29.90;59.40
25450;DHT22;13371;52.080;5.624;2023-06-19T14:06:30;30.00;58.20
25450;DHT22;13371;52.080;5.624;2023-06-19T14:08:56;30.30;56.80
25450;DHT22;13371;52.080;5.624;2023-06-19T14:11:21;30.10;57.70
25450;DHT22;13371;52.080;5.624;2023-06-19T14:13:47;30.10;57.90
25450;DHT22;13371;52.080;5.624;2023-06-19T14:16:13;30.20;57.50
25450;DHT22;13371;52.080;5.624;2023-06-19T14:18:38;30.10;57.70
25450;DHT22;13371;52.080;5.624;2023-06-19T14:21:04;30.10;58.20
25450;DHT22;13371;52.080;5.624;2023-06-19T14:23:29;30.20;57.50
25450;DHT22;13371;52.080;5.624;2023-06-19T14:25:55;30.20;57.40
25450;DHT22;13371;52.080;5.624;2023-06-19T14:28:21;30.00;57.60
25450;DHT22;13371;52.080;5.624;2023-06-19T14:30:46;30.20;57.70
25450;DHT22;13371;52.080;5.624;2023-06-19T14:33:12;30.00;57.60
25450;DHT22;13371;52.080;5.624;2023-06-19T14:35:41;29.90;58.30
25450;DHT22;13371;52.080;5.624;2023-06-19T14:38:07;30.20;59.00
25450;DHT22;13371;52.080;5.624;2023-06-19T14:40:33;30.20;57.10
25450;DHT22;13371;52.080;5.624;2023-06-19T14:42:58;30.30;57.20
25450;DHT22;13371;52.080;5.624;2023-06-19T14:45:24;30.40;57.70
25450;DHT22;13371;52.080;5.624;2023-06-19T14:47:49;30.40;56.10
25450;DHT22;13371;52.080;5.624;2023-06-19T14:50:15;30.60;57.40
25450;DHT22;13371;52.080;5.624;2023-06-19T14:52:41;30.70;56.50
25450;DHT22;13371;52.080;5.624;2023-06-19T14:55:06;30.80;56.70
25450;DHT22;13371;52.080;5.624;2023-06-19T14:57:32;30.80;55.80
25450;DHT22;13371;52.080;5.624;2023-06-19T14:59:58;30.90;54.90
25450;DHT22;13371;52.080;5.624;2023-06-19T15:02:23;30.70;54.30
25450;DHT22;13371;52.080;5.624;2023-06-19T15:04:49;30.80;54.80
25450;DHT22;13371;52.080;5.624;2023-06-19T15:07:14;30.90;55.90
25450;DHT22;13371;52.080;5.624;2023-06-19T15:09:40;30.80;55.90
25450;DHT22;13371;52.080;5.624;2023-06-19T15:12:06;30.60;54.70
25450;DHT22;13371;52.080;5.624;2023-06-19T15:14:31;30.60;55.30
25450;DHT22;13371;52.080;5.624;2023-06-19T15:16:58;30.50;57.00
25450;DHT22;13371;52.080;5.624;2023-06-19T15:19:24;30.60;55.10
25450;DHT22;13371;52.080;5.624;2023-06-19T15:21:49;30.80;54.60
25450;DHT22;13371;52.080;5.624;2023-06-19T15:24:15;31.20;54.60
25450;DHT22;13371;52.080;5.624;2023-06-19T15:26:41;31.50;55.30
25450;DHT22;13371;52.080;5.624;2023-06-19T15:29:06;31.50;53.30
25450;DHT22;13371;52.080;5.624;2023-06-19T15:31:32;31.30;53.00
25450;DHT22;13371;52.080;5.624;2023-06-19T15:33:58;31.30;53.60
25450;DHT22;13371;52.080;5.624;2023-06-19T15:36:23;31.10;53.50
25450;DHT22;13371;52.080;5.624;2023-06-19T15:38:49;31.20;53.30
25450;DHT22;13371;52.080;5.624;2023-06-19T15:41:14;31.30;53.40